createdAt,value
2023-04-29T00:01:20.954Z,10.30
2023-04-29T00:03:48.041Z,10.88
2023-04-29T00:06:17.017Z,10.75
2023-04-29T00:08:43.923Z,10.65
2023-04-29T00:11:11.546Z,10.48
2023-04-29T00:13:40.798Z,12.45
2023-04-29T00:16:08.773Z,10.77
2023-04-29T00:18:36.490Z,12.27
2023-04-29T00:21:05.966Z,11.13
2023-04-29T00:23:33.935Z,9.23
2023-04-29T00:26:00.892Z,8.88
2023-04-29T00:28:27.912Z,9.93
2023-04-29T00:30:55.933Z,11.05
2023-04-29T00:33:23.206Z,10.90
2023-04-29T00:35:50.362Z,11.38
2023-04-29T00:38:17.341Z,9.20
2023-04-29T00:40:44.821Z,8.05
2023-04-29T00:43:11.786Z,9.85
2023-04-29T00:45:38.606Z,9.63
2023-04-29T00:48:05.709Z,9.27
2023-04-29T00:50:32.987Z,10.52
2023-04-29T00:53:00.849Z,9.95
2023-04-29T00:55:28.750Z,8.25
2023-04-29T00:57:57.040Z,8.30
2023-04-29T01:00:26.166Z,9.65
2023-04-29T01:02:57.062Z,9.50
2023-04-29T01:07:57.578Z,8.82
2023-04-29T01:10:29.877Z,11.60
2023-04-29T01:13:23.010Z,7.28
2023-04-29T01:16:03.800Z,9.40
2023-04-29T01:18:44.025Z,8.75
2023-04-29T01:21:12.077Z,8.57
2023-04-29T01:23:38.845Z,9.40
2023-04-29T01:26:06.745Z,8.27
2023-04-29T01:28:59.898Z,8.57
2023-04-29T01:31:48.063Z,9.52
2023-04-29T01:34:23.765Z,9.85
2023-04-29T01:36:50.720Z,9.07
2023-04-29T01:39:41.602Z,7.93
2023-04-29T01:42:20.387Z,8.70
2023-04-29T01:44:49.374Z,8.82
2023-04-29T01:47:20.225Z,7.88
2023-04-29T01:49:51.177Z,8.35
2023-04-29T01:52:18.272Z,6.05
2023-04-29T01:54:52.907Z,6.75
2023-04-29T01:57:20.482Z,6.38
2023-04-29T02:00:11.640Z,5.97
2023-04-29T02:02:45.727Z,5.25
2023-04-29T02:05:23.554Z,4.38
2023-04-29T02:07:55.426Z,6.07
2023-04-29T02:10:22.517Z,6.13
2023-04-29T02:12:54.351Z,5.13
2023-04-29T02:15:21.807Z,4.90
2023-04-29T02:17:48.671Z,5.55
2023-04-29T02:20:16.085Z,5.68
2023-04-29T02:22:43.356Z,6.13
2023-04-29T02:25:11.528Z,6.10
2023-04-29T02:27:38.355Z,5.50
2023-04-29T02:30:06.924Z,5.07
2023-04-29T02:32:33.788Z,5.95
2023-04-29T02:35:00.920Z,6.13
2023-04-29T02:37:28.928Z,6.00
2023-04-29T02:39:55.906Z,6.05
2023-04-29T02:42:22.813Z,6.63
2023-04-29T02:44:49.734Z,6.95
2023-04-29T02:47:16.605Z,8.10
2023-04-29T02:49:45.098Z,7.18
2023-04-29T02:52:12.754Z,7.50
2023-04-29T02:54:40.063Z,6.20
2023-04-29T02:57:07.999Z,6.47
2023-04-29T02:59:34.997Z,6.88
2023-04-29T03:02:02.080Z,7.28
2023-04-29T03:04:29.169Z,7.35
2023-04-29T03:06:56.902Z,7.30
2023-04-29T03:09:26.420Z,7.20
2023-04-29T03:11:53.317Z,6.82
2023-04-29T03:14:20.265Z,7.63
2023-04-29T03:16:48.108Z,8.43
2023-04-29T03:19:15.549Z,6.93
2023-04-29T03:21:42.372Z,8.65
2023-04-29T03:24:09.158Z,8.35
2023-04-29T03:26:36.923Z,10.18
2023-04-29T03:29:04.801Z,8.73
2023-04-29T03:31:31.692Z,8.85
2023-04-29T03:33:58.533Z,8.00
2023-04-29T03:36:25.775Z,7.80
2023-04-29T03:39:05.810Z,9.40
2023-04-29T03:41:32.691Z,9.48
2023-04-29T03:44:00.892Z,9.43
2023-04-29T03:46:29.834Z,8.23
2023-04-29T03:48:57.619Z,8.52
2023-04-29T03:51:25.444Z,10.00
2023-04-29T03:53:57.948Z,8.15
2023-04-29T03:56:25.700Z,10.23
2023-04-29T03:58:53.051Z,10.52
2023-04-29T04:01:22.069Z,11.00
2023-04-29T04:03:49.269Z,10.35
2023-04-29T04:06:16.706Z,8.70
2023-04-29T04:08:43.991Z,12.00
2023-04-29T04:11:18.439Z,9.50
2023-04-29T04:13:50.166Z,11.68
2023-04-29T04:16:17.914Z,11.25
2023-04-29T04:18:45.255Z,10.25
2023-04-29T04:21:12.971Z,11.52
2023-04-29T04:23:44.021Z,9.90
2023-04-29T04:26:13.616Z,10.45
2023-04-29T04:28:52.587Z,10.60
2023-04-29T04:31:28.796Z,10.10
2023-04-29T04:33:56.096Z,7.55
2023-04-29T04:36:23.519Z,7.00
2023-04-29T04:38:50.624Z,7.15
2023-04-29T04:41:17.713Z,6.13
2023-04-29T04:43:47.262Z,6.38
2023-04-29T04:46:32.651Z,6.20
2023-04-29T04:49:12.517Z,5.82
2023-04-29T04:51:46.014Z,5.85
2023-04-29T04:54:13.589Z,6.60
2023-04-29T04:56:40.477Z,6.07
2023-04-29T04:59:08.179Z,5.95
2023-04-29T05:01:37.308Z,5.82
2023-04-29T05:04:04.557Z,5.22
2023-04-29T05:06:31.534Z,5.97
2023-04-29T05:08:58.428Z,5.50
2023-04-29T05:11:25.483Z,7.05
2023-04-29T05:14:08.231Z,6.05
2023-04-29T05:16:35.299Z,7.15
2023-04-29T05:19:02.386Z,7.15
2023-04-29T05:21:32.712Z,5.82
2023-04-29T05:24:00.652Z,7.85
2023-04-29T05:26:27.497Z,7.32
2023-04-29T05:28:59.775Z,7.95
2023-04-29T05:31:28.346Z,8.75
2023-04-29T05:33:57.032Z,8.68
2023-04-29T05:36:25.180Z,7.85
2023-04-29T05:38:51.983Z,7.28
2023-04-29T05:41:18.855Z,7.47
2023-04-29T05:44:01.992Z,7.80
2023-04-29T05:46:31.710Z,9.30
2023-04-29T05:48:58.588Z,6.95
2023-04-29T05:51:25.685Z,7.22
2023-04-29T05:53:52.516Z,7.70
2023-04-29T05:56:20.072Z,8.50
2023-04-29T05:58:46.935Z,9.20
2023-04-29T06:01:13.791Z,8.05
2023-04-29T06:03:41.980Z,8.38
2023-04-29T06:06:27.418Z,9.55
2023-04-29T06:09:26.311Z,9.68
2023-04-29T06:11:54.631Z,9.25
2023-04-29T06:14:21.616Z,11.20
2023-04-29T06:16:49.496Z,8.63
2023-04-29T06:19:16.517Z,10.13
2023-04-29T06:21:43.391Z,13.48
2023-04-29T06:24:10.320Z,14.23
2023-04-29T06:26:37.418Z,13.13
2023-04-29T06:29:04.204Z,15.80
2023-04-29T06:31:31.685Z,12.88
2023-04-29T06:34:02.807Z,10.00
2023-04-29T06:36:30.356Z,10.38
2023-04-29T06:39:06.122Z,11.73
2023-04-29T06:42:10.815Z,8.95
2023-04-29T06:44:49.903Z,8.43
2023-04-29T06:47:39.392Z,9.23
2023-04-29T06:50:11.327Z,9.85
2023-04-29T06:52:38.255Z,8.23
2023-04-29T06:55:05.579Z,7.82
2023-04-29T06:57:32.764Z,8.40
2023-04-29T06:59:59.522Z,9.57
2023-04-29T07:02:26.438Z,9.02
2023-04-29T07:04:53.878Z,8.30
2023-04-29T07:07:20.798Z,7.78
2023-04-29T07:09:48.650Z,7.30
2023-04-29T07:12:15.524Z,6.95
2023-04-29T07:14:42.379Z,8.27
2023-04-29T07:17:09.723Z,9.15
2023-04-29T07:19:37.298Z,8.88
2023-04-29T07:22:04.714Z,7.82
2023-04-29T07:24:31.740Z,8.88
2023-04-29T07:26:58.665Z,7.20
2023-04-29T07:29:25.482Z,9.10
2023-04-29T07:31:52.319Z,7.97
2023-04-29T07:34:19.727Z,6.80
2023-04-29T07:36:48.623Z,7.55
2023-04-29T07:39:16.336Z,8.98
2023-04-29T07:41:45.990Z,8.43
2023-04-29T07:44:12.792Z,6.88
2023-04-29T07:46:39.865Z,7.57
2023-04-29T07:49:07.140Z,7.70
2023-04-29T07:51:34.064Z,8.95
2023-04-29T07:54:01.274Z,7.95
2023-04-29T07:56:28.211Z,8.63
2023-04-29T07:58:55.078Z,7.55
2023-04-29T08:01:22.011Z,8.63
2023-04-29T08:03:49.087Z,9.45
2023-04-29T08:06:20.855Z,8.20
2023-04-29T08:08:49.027Z,9.07
2023-04-29T08:11:19.399Z,8.40
2023-04-29T08:13:46.935Z,8.93
2023-04-29T08:16:14.012Z,8.63
2023-04-29T08:18:41.689Z,11.02
2023-04-29T08:21:11.419Z,9.57
2023-04-29T08:23:39.451Z,10.55
2023-04-29T08:26:06.580Z,11.85
2023-04-29T08:28:33.433Z,11.13
2023-04-29T08:31:00.393Z,11.32
2023-04-29T08:33:27.579Z,10.88
2023-04-29T08:36:01.540Z,11.27
2023-04-29T08:38:28.370Z,10.40
2023-04-29T08:40:56.325Z,10.98
2023-04-29T08:43:23.366Z,10.23
2023-04-29T08:45:50.645Z,11.45
2023-04-29T08:48:18.673Z,10.30
2023-04-29T08:50:46.149Z,9.77
2023-04-29T08:53:14.412Z,10.45
2023-04-29T08:55:47.824Z,12.13
2023-04-29T08:58:15.657Z,12.23
2023-04-29T09:00:43.984Z,10.80
2023-04-29T09:03:48.665Z,12.52
2023-04-29T09:06:16.552Z,11.20
2023-04-29T09:08:44.010Z,11.55
2023-04-29T09:11:12.439Z,12.73
2023-04-29T09:13:39.235Z,11.82
2023-04-29T09:16:11.700Z,14.15
2023-04-29T09:18:48.628Z,15.18
2023-04-29T09:21:22.240Z,12.45
2023-04-29T09:23:52.198Z,13.75
2023-04-29T09:26:19.489Z,14.20
2023-04-29T09:28:47.808Z,12.10
2023-04-29T09:31:14.976Z,14.60
2023-04-29T09:33:53.724Z,13.75
2023-04-29T09:36:38.996Z,13.30
2023-04-29T09:39:11.570Z,13.02
2023-04-29T09:42:03.170Z,13.50
2023-04-29T09:44:34.687Z,13.27
2023-04-29T09:47:05.205Z,16.77
2023-04-29T09:49:41.644Z,16.15
2023-04-29T09:52:08.834Z,14.88
2023-04-29T09:54:37.171Z,14.07
2023-04-29T09:57:08.048Z,14.32
2023-04-29T09:59:36.603Z,12.52
2023-04-29T10:02:15.210Z,15.45
2023-04-29T10:04:44.571Z,16.48
2023-04-29T10:07:16.053Z,16.92
2023-04-29T10:09:46.166Z,15.55
2023-04-29T10:12:17.436Z,17.47
2023-04-29T10:15:03.777Z,13.60
2023-04-29T10:17:42.653Z,16.50
2023-04-29T10:20:12.194Z,17.02
2023-04-29T10:22:47.408Z,16.50
2023-04-29T10:25:17.083Z,15.68
2023-04-29T10:27:44.789Z,15.43
2023-04-29T10:30:16.499Z,14.93
2023-04-29T10:32:51.700Z,15.50
2023-04-29T10:35:23.273Z,14.65
2023-04-29T10:37:51.316Z,16.50
2023-04-29T10:40:51.871Z,15.90
2023-04-29T10:43:24.384Z,14.85
2023-04-29T10:46:17.386Z,14.45
2023-04-29T10:48:45.160Z,13.98
2023-04-29T10:51:12.219Z,14.63
2023-04-29T10:53:58.476Z,14.82
2023-04-29T10:56:54.266Z,14.98
2023-04-29T10:59:33.558Z,15.18
2023-04-29T11:02:00.526Z,13.20
2023-04-29T11:04:27.429Z,13.57
2023-04-29T11:06:56.523Z,13.80
2023-04-29T11:09:27.987Z,15.60
2023-04-29T11:12:03.849Z,13.10
2023-04-29T11:14:51.398Z,14.05
2023-04-29T11:17:20.661Z,14.55
2023-04-29T11:19:50.311Z,11.70
2023-04-29T11:22:22.673Z,12.73
2023-04-29T11:25:04.374Z,12.30
2023-04-29T11:27:33.487Z,11.57
2023-04-29T11:30:01.648Z,11.23
2023-04-29T11:32:30.201Z,10.27
2023-04-29T11:35:17.003Z,11.35
2023-04-29T11:37:45.860Z,10.23
2023-04-29T11:40:13.885Z,10.82
2023-04-29T11:42:50.231Z,12.20
2023-04-29T11:45:20.442Z,10.82
2023-04-29T11:47:48.919Z,10.80
2023-04-29T11:50:19.507Z,10.63
2023-04-29T11:52:47.715Z,11.40
2023-04-29T11:55:14.797Z,10.02
2023-04-29T11:57:41.795Z,12.10
2023-04-29T12:00:12.696Z,9.02
2023-04-29T12:05:08.692Z,10.10
2023-04-29T12:07:37.126Z,9.90
2023-04-29T12:10:07.740Z,10.40
2023-04-29T12:12:36.450Z,11.65
2023-04-29T12:15:05.390Z,11.15
2023-04-29T12:17:32.535Z,11.68
2023-04-29T12:19:59.916Z,10.05
2023-04-29T12:22:32.948Z,11.70
2023-04-29T12:25:00.329Z,10.45
2023-04-29T12:27:27.591Z,10.65
2023-04-29T12:29:54.532Z,10.38
2023-04-29T12:32:25.181Z,10.25
2023-04-29T12:34:53.086Z,10.30
2023-04-29T12:37:23.265Z,10.73
2023-04-29T12:39:50.803Z,9.40
2023-04-29T12:42:18.040Z,11.15
2023-04-29T12:44:48.745Z,11.93
2023-04-29T12:47:16.798Z,10.98
2023-04-29T12:49:48.158Z,10.85
2023-04-29T12:52:15.123Z,10.38
2023-04-29T12:54:43.672Z,10.18
2023-04-29T12:57:11.809Z,10.50
2023-04-29T12:59:40.684Z,10.20
2023-04-29T13:02:07.985Z,10.30
2023-04-29T13:04:34.895Z,11.77
2023-04-29T13:07:02.464Z,9.43
2023-04-29T13:09:30.459Z,10.38
2023-04-29T13:11:57.800Z,11.63
2023-04-29T13:14:24.769Z,9.88
2023-04-29T13:16:51.633Z,9.98
2023-04-29T13:19:38.417Z,10.73
2023-04-29T13:22:05.267Z,10.32
2023-04-29T13:24:33.026Z,10.02
2023-04-29T13:27:00.174Z,10.13
2023-04-29T13:29:27.187Z,11.98
2023-04-29T13:31:54.107Z,11.00
2023-04-29T13:34:21.426Z,10.02
2023-04-29T13:36:48.455Z,11.15
2023-04-29T13:39:15.305Z,12.25
2023-04-29T13:41:45.759Z,9.98
2023-04-29T13:46:55.909Z,9.15
2023-04-29T13:49:54.711Z,7.70
2023-04-29T13:59:56.378Z,9.45
2023-04-29T14:02:26.039Z,9.15
2023-04-29T14:04:54.483Z,9.48
2023-04-29T14:07:22.484Z,9.35
2023-04-29T14:09:49.437Z,9.23
2023-04-29T14:12:16.231Z,9.07
2023-04-29T14:14:43.101Z,8.95
2023-04-29T14:17:09.884Z,8.75
2023-04-29T14:19:36.699Z,8.65
2023-04-29T14:22:03.518Z,10.38
2023-04-29T14:24:31.157Z,9.35
2023-04-29T14:26:57.997Z,9.73
2023-04-29T14:29:25.034Z,8.95
2023-04-29T14:31:52.008Z,8.90
2023-04-29T14:34:19.734Z,8.85
2023-04-29T14:36:46.778Z,8.75
2023-04-29T14:39:13.870Z,8.90
2023-04-29T14:41:40.670Z,8.35
2023-04-29T14:44:07.512Z,8.48
2023-04-29T14:46:34.360Z,7.68
2023-04-29T14:49:01.877Z,8.35
2023-04-29T14:51:29.395Z,8.93
2023-04-29T14:53:56.194Z,9.60
2023-04-29T14:56:23.169Z,8.77
2023-04-29T14:58:49.943Z,8.30
2023-04-29T15:01:16.795Z,8.27
2023-04-29T15:03:45.061Z,8.57
2023-04-29T15:06:13.102Z,9.13
2023-04-29T15:08:40.012Z,9.02
2023-04-29T15:11:06.890Z,8.57
2023-04-29T15:13:33.947Z,9.65
2023-04-29T15:16:00.940Z,8.05
2023-04-29T15:18:27.796Z,9.18
2023-04-29T15:20:54.579Z,9.02
2023-04-29T15:23:21.406Z,9.40
2023-04-29T15:25:48.249Z,9.35
2023-04-29T15:28:15.113Z,9.93
2023-04-29T15:30:42.100Z,8.93
2023-04-29T15:33:09.355Z,8.45
2023-04-29T15:35:36.810Z,9.02
2023-04-29T15:38:04.044Z,9.15
2023-04-29T15:40:31.289Z,10.73
2023-04-29T15:42:58.439Z,10.05
2023-04-29T15:45:25.377Z,11.25
2023-04-29T15:47:52.138Z,11.27
2023-04-29T15:50:19.027Z,11.43
2023-04-29T15:52:46.521Z,11.02
2023-04-29T15:55:13.425Z,10.98
2023-04-29T15:57:41.860Z,11.45
2023-04-29T16:00:09.704Z,11.32
2023-04-29T16:02:36.674Z,12.48
2023-04-29T16:05:03.824Z,13.55
2023-04-29T16:07:31.144Z,13.63
2023-04-29T16:09:57.953Z,12.57
2023-04-29T16:12:24.905Z,11.90
2023-04-29T16:14:51.749Z,12.00
2023-04-29T16:17:19.334Z,13.10
2023-04-29T16:19:46.137Z,12.32
2023-04-29T16:22:12.957Z,14.43
2023-04-29T16:24:39.799Z,12.98
2023-04-29T16:27:06.743Z,13.18
2023-04-29T16:29:41.219Z,13.88
2023-04-29T16:32:11.943Z,13.48
2023-04-29T16:34:39.658Z,14.63
2023-04-29T16:37:12.230Z,12.77
2023-04-29T16:39:40.203Z,12.75
2023-04-29T16:42:07.342Z,14.57
2023-04-29T16:44:34.334Z,15.23
2023-04-29T16:47:01.588Z,15.00
2023-04-29T16:49:29.645Z,12.30
2023-04-29T16:51:56.608Z,14.25
2023-04-29T16:54:24.183Z,13.75
2023-04-29T16:56:51.326Z,15.15
2023-04-29T16:59:18.264Z,14.45
2023-04-29T17:01:45.722Z,13.95
2023-04-29T17:04:12.685Z,16.27
2023-04-29T17:06:40.719Z,14.30
2023-04-29T17:09:07.952Z,13.57
2023-04-29T17:11:34.794Z,14.68
2023-04-29T17:14:01.711Z,13.20
2023-04-29T17:16:30.502Z,14.15
2023-04-29T17:18:57.517Z,13.10
2023-04-29T17:21:25.804Z,12.57
2023-04-29T17:23:53.357Z,11.25
2023-04-29T17:26:21.254Z,14.77
2023-04-29T17:28:48.441Z,12.50
2023-04-29T17:31:15.567Z,13.25
2023-04-29T17:33:54.633Z,13.93
2023-04-29T17:36:25.117Z,13.50
2023-04-29T17:38:52.014Z,12.55
2023-04-29T17:41:18.766Z,13.98
2023-04-29T17:43:47.120Z,13.20
2023-04-29T17:46:14.018Z,13.82
2023-04-29T17:48:40.968Z,12.02
2023-04-29T17:51:07.909Z,13.20
2023-04-29T17:53:35.000Z,13.25
2023-04-29T17:56:01.836Z,12.10
2023-04-29T17:58:29.047Z,12.80
2023-04-29T18:00:56.678Z,11.32
2023-04-29T18:03:23.875Z,12.90
2023-04-29T18:05:50.909Z,11.52
2023-04-29T18:08:17.682Z,12.15
2023-04-29T18:10:44.491Z,12.40
2023-04-29T18:13:11.573Z,19.67
2023-04-29T18:15:38.319Z,14.30
2023-04-29T18:18:05.424Z,11.43
2023-04-29T18:20:32.298Z,11.80
2023-04-29T18:22:59.144Z,11.25
2023-04-29T18:25:26.375Z,12.68
2023-04-29T18:28:03.505Z,11.98
2023-04-29T18:30:40.477Z,10.25
2023-04-29T18:33:07.515Z,10.27
2023-04-29T18:35:34.852Z,11.57
2023-04-29T18:38:01.598Z,11.68
2023-04-29T18:40:28.901Z,11.13
2023-04-29T18:42:55.657Z,11.35
2023-04-29T18:45:22.813Z,11.63
2023-04-29T18:47:49.769Z,12.23
2023-04-29T18:50:16.950Z,14.05
2023-04-29T18:52:43.760Z,16.45
2023-04-29T18:55:11.058Z,13.88
2023-04-29T18:57:37.835Z,14.65
2023-04-29T19:00:06.048Z,15.82
2023-04-29T19:02:32.889Z,12.98
2023-04-29T19:05:02.528Z,13.43
2023-04-29T19:07:29.596Z,15.35
2023-04-29T19:09:56.723Z,16.02
2023-04-29T19:12:25.496Z,14.30
2023-04-29T19:14:52.296Z,14.63
2023-04-29T19:17:19.215Z,18.92
2023-04-29T19:19:46.059Z,15.75
2023-04-29T19:22:13.132Z,17.15
2023-04-29T19:24:42.041Z,15.82
2023-04-29T19:27:09.725Z,17.20
2023-04-29T19:29:37.156Z,17.42
2023-04-29T19:32:04.066Z,18.10
2023-04-29T19:34:31.460Z,18.30
2023-04-29T19:36:58.348Z,17.70
2023-04-29T19:39:25.421Z,17.52
2023-04-29T19:41:52.197Z,18.10
2023-04-29T19:44:18.999Z,21.70
2023-04-29T19:46:46.122Z,20.88
2023-04-29T19:49:13.303Z,21.75
2023-04-29T19:51:41.335Z,21.98
2023-04-29T19:54:08.191Z,19.73
2023-04-29T19:56:35.081Z,18.70
2023-04-29T19:59:01.897Z,20.67
2023-04-29T20:01:28.749Z,17.15
2023-04-29T20:03:55.543Z,17.45
2023-04-29T20:06:22.487Z,20.45
2023-04-29T20:08:49.310Z,19.45
2023-04-29T20:11:16.144Z,18.27
2023-04-29T20:13:42.966Z,19.17
2023-04-29T20:16:11.098Z,18.50
2023-04-29T20:18:38.048Z,19.77
2023-04-29T20:21:04.971Z,20.55
2023-04-29T20:23:31.815Z,18.73
2023-04-29T20:25:58.813Z,20.65
2023-04-29T20:28:25.709Z,18.33
2023-04-29T20:30:52.551Z,17.45
2023-04-29T20:33:19.379Z,19.10
2023-04-29T20:35:46.500Z,16.08
2023-04-29T20:38:13.368Z,18.30
2023-04-29T20:40:40.287Z,17.25
2023-04-29T20:43:07.703Z,18.42
2023-04-29T20:45:38.983Z,19.08
2023-04-29T20:48:06.360Z,18.75
2023-04-29T20:50:33.123Z,18.42
2023-04-29T20:53:00.886Z,17.70
2023-04-29T20:55:27.758Z,17.55
2023-04-29T20:57:54.538Z,17.58
2023-04-29T21:00:21.351Z,15.45
2023-04-29T21:02:48.327Z,15.38
2023-04-29T21:05:15.224Z,15.52
2023-04-29T21:07:42.094Z,15.70
2023-04-29T21:10:09.188Z,11.70
2023-04-29T21:12:36.133Z,12.88
2023-04-29T21:15:02.978Z,11.93
2023-04-29T21:17:29.876Z,12.77
2023-04-29T21:19:56.793Z,11.20
2023-04-29T21:22:24.489Z,11.38
2023-04-29T21:24:51.469Z,10.90
2023-04-29T21:27:18.288Z,12.60
2023-04-29T21:29:45.204Z,10.30
2023-04-29T21:32:12.519Z,10.20
2023-04-29T21:34:39.328Z,12.57
2023-04-29T21:37:06.291Z,13.60
2023-04-29T21:39:33.345Z,14.70
2023-04-29T21:42:01.219Z,15.43
2023-04-29T21:44:28.941Z,17.75
2023-04-29T21:46:56.793Z,16.25
2023-04-29T21:49:23.670Z,17.20
2023-04-29T21:51:50.910Z,18.30
2023-04-29T21:54:17.770Z,19.08
2023-04-29T21:56:44.657Z,19.42
2023-04-29T21:59:11.562Z,18.63
2023-04-29T22:01:47.374Z,18.05
2023-04-29T22:04:17.160Z,18.67
2023-04-29T22:06:44.085Z,17.52
2023-04-29T22:09:11.050Z,16.70
2023-04-29T22:11:38.620Z,16.10
2023-04-29T22:14:05.571Z,18.38
2023-04-29T22:16:33.817Z,17.77
2023-04-29T22:19:00.923Z,17.25
2023-04-29T22:21:28.194Z,16.48
2023-04-29T22:23:55.273Z,19.42
2023-04-29T22:26:25.347Z,20.88
2023-04-29T22:28:52.714Z,16.10
2023-04-29T22:31:19.572Z,17.08
2023-04-29T22:33:46.506Z,19.15
2023-04-29T22:36:13.288Z,17.38
2023-04-29T22:38:40.127Z,16.40
2023-04-29T22:41:09.551Z,18.02
2023-04-29T22:43:36.340Z,16.98
2023-04-29T22:46:03.585Z,16.23
2023-04-29T22:48:30.738Z,14.02
2023-04-29T22:51:03.689Z,16.10
2023-04-29T22:53:30.489Z,12.15
2023-04-29T22:55:59.409Z,13.65
2023-04-29T22:58:26.736Z,12.93
2023-04-29T23:00:58.639Z,12.77
2023-04-29T23:03:26.849Z,12.02
2023-04-29T23:06:00.488Z,11.98
2023-04-29T23:08:27.956Z,10.38
2023-04-29T23:10:54.766Z,10.77
2023-04-29T23:13:21.617Z,10.10
2023-04-29T23:15:48.427Z,9.93
2023-04-29T23:18:15.400Z,7.03
2023-04-29T23:20:45.922Z,7.78
2023-04-29T23:23:12.701Z,7.68
2023-04-29T23:25:39.486Z,5.78
2023-04-29T23:28:06.718Z,7.53
2023-04-29T23:30:33.588Z,5.53
2023-04-29T23:33:00.441Z,5.70
2023-04-29T23:35:27.276Z,5.85
2023-04-29T23:37:54.266Z,5.70
2023-04-29T23:40:21.233Z,7.05
2023-04-29T23:42:48.044Z,6.82
2023-04-29T23:45:14.878Z,7.80
2023-04-29T23:47:42.057Z,7.10
2023-04-29T23:50:09.373Z,6.93
2023-04-29T23:52:36.220Z,7.22
2023-04-29T23:55:03.865Z,8.90
2023-04-29T23:57:30.863Z,8.13
2023-04-29T23:59:57.645Z,8.07
